Time;durP1;ratioP1;P1;durP2;ratioP2;P2;SDS_P1;SDS_P2;PMS_P1;PMS_P2;Temp;Humidity;BMP_temperature;BMP_pressure;BME280_temperature;BME280_humidity;BME280_pressure;Samples;Min_cycle;Max_cycle;Signal;HPM_P1;HPM_P2
2023/12/22 00:01:15;;;;;;;10.43;2.10;;;7.80;99.90;;;;;;5103349;28;20473;-66
2023/12/22 00:03:43;;;;;;;7.50;1.00;;;7.90;99.90;;;;;;5103576;28;21138;-66
2023/12/22 00:06:11;;;;;;;8.63;1.50;;;7.90;99.90;;;;;;5103672;28;21035;-67
2023/12/22 00:08:39;;;;;;;6.87;1.23;;;7.80;99.90;;;;;;5103424;28;20524;-66
2023/12/22 00:11:08;;;;;;;8.57;1.10;;;7.80;99.90;;;;;;5095444;28;20441;-66
2023/12/22 00:13:36;;;;;;;8.47;1.50;;;7.90;99.90;;;;;;5103017;28;20437;-67
2023/12/22 00:16:05;;;;;;;8.03;1.10;;;7.90;99.90;;;;;;5091475;28;20465;-67
2023/12/22 00:18:34;;;;;;;8.60;1.30;;;7.90;99.90;;;;;;5094041;28;20502;-68
2023/12/22 00:21:02;;;;;;;7.70;1.10;;;7.90;99.90;;;;;;5096556;28;20543;-67
2023/12/22 00:23:32;;;;;;;7.77;1.30;;;7.90;99.90;;;;;;5094924;28;20569;-67
2023/12/22 00:26:00;;;;;;;11.80;1.07;;;7.80;99.90;;;;;;5097880;28;20541;-66
2023/12/22 00:28:28;;;;;;;8.53;1.20;;;7.90;99.90;;;;;;5100952;28;20876;-66
2023/12/22 00:30:56;;;;;;;9.53;1.90;;;8.00;99.90;;;;;;5102755;28;20440;-67
2023/12/22 00:33:24;;;;;;;10.67;1.77;;;8.00;99.90;;;;;;5102649;28;20461;-67
2023/12/22 00:35:54;;;;;;;11.87;1.60;;;7.90;99.90;;;;;;5101618;28;20536;-67
2023/12/22 00:38:21;;;;;;;7.90;1.30;;;7.80;99.90;;;;;;5103149;28;20445;-67
2023/12/22 00:40:49;;;;;;;9.20;1.20;;;7.60;99.90;;;;;;5102610;28;20486;-66
2023/12/22 00:43:17;;;;;;;8.13;1.40;;;7.50;99.90;;;;;;5101081;28;20458;-67
2023/12/22 00:45:46;;;;;;;9.40;1.33;;;7.50;99.90;;;;;;5092039;28;20794;-67
2023/12/22 00:48:13;;;;;;;6.90;1.23;;;7.50;99.90;;;;;;5099183;28;20466;-67
2023/12/22 00:50:42;;;;;;;7.60;1.20;;;7.50;99.90;;;;;;5092613;28;20446;-66
2023/12/22 00:53:11;;;;;;;8.17;1.40;;;7.50;99.90;;;;;;5093785;28;20528;-67
2023/12/22 00:55:39;;;;;;;6.37;0.80;;;7.20;99.90;;;;;;5100997;28;20441;-66
2023/12/22 00:58:07;;;;;;;6.60;0.90;;;6.80;99.90;;;;;;5103063;28;20528;-67
2023/12/22 01:00:35;;;;;;;7.93;1.10;;;6.60;99.90;;;;;;5103356;28;20486;-66
2023/12/22 01:03:03;;;;;;;7.77;1.13;;;6.30;99.90;;;;;;5099808;28;20456;-67
2023/12/22 01:05:31;;;;;;;6.07;0.80;;;6.30;99.90;;;;;;5082266;28;21156;-66
2023/12/22 01:08:00;;;;;;;7.17;1.07;;;6.20;99.90;;;;;;5082538;28;20468;-67
2023/12/22 01:10:29;;;;;;;6.63;1.13;;;6.10;99.90;;;;;;5082862;28;20470;-66
2023/12/22 01:12:57;;;;;;;11.47;1.17;;;6.00;99.90;;;;;;5095670;28;20455;-67
2023/12/22 01:15:25;;;;;;;6.90;1.00;;;5.90;99.90;;;;;;5097483;28;20444;-67
2023/12/22 01:17:53;;;;;;;6.93;1.40;;;6.00;99.90;;;;;;5083604;28;20479;-66
2023/12/22 01:20:21;;;;;;;6.63;1.20;;;6.10;99.90;;;;;;5089451;28;20525;-66
2023/12/22 01:22:51;;;;;;;6.70;1.13;;;6.20;99.90;;;;;;5085715;28;20598;-67
2023/12/22 01:25:19;;;;;;;6.23;1.00;;;6.30;99.90;;;;;;5084944;28;21275;-66
2023/12/22 01:27:50;;;;;;;7.70;1.10;;;6.30;99.90;;;;;;5084541;28;20477;-66
2023/12/22 01:30:18;;;;;;;7.50;1.70;;;6.40;99.90;;;;;;5101563;28;20467;-67
2023/12/22 01:32:46;;;;;;;8.77;1.53;;;6.40;99.90;;;;;;5105503;28;20444;-67
2023/12/22 01:35:14;;;;;;;7.37;1.10;;;6.60;99.90;;;;;;5101975;28;20461;-66
2023/12/22 01:37:42;;;;;;;8.07;1.63;;;6.90;99.90;;;;;;5105548;28;20467;-66
2023/12/22 01:40:11;;;;;;;10.97;1.80;;;7.10;99.90;;;;;;5097411;28;21152;-66
2023/12/22 01:42:39;;;;;;;7.67;1.40;;;7.20;99.90;;;;;;5105583;28;20576;-65
2023/12/22 01:45:10;;;;;;;9.97;1.70;;;7.40;99.90;;;;;;5105240;28;20458;-65
2023/12/22 01:47:39;;;;;;;9.73;1.30;;;7.50;99.90;;;;;;5106629;28;20522;-66
2023/12/22 01:50:10;;;;;;;7.53;1.20;;;7.60;99.90;;;;;;5105878;28;20452;-66
2023/12/22 01:52:39;;;;;;;6.77;1.07;;;7.60;99.90;;;;;;5099917;28;20456;-66
2023/12/22 01:55:10;;;;;;;11.03;1.23;;;7.80;99.90;;;;;;5107284;28;20444;-66
2023/12/22 01:57:40;;;;;;;9.23;1.20;;;7.80;99.90;;;;;;5109038;28;20891;-66
2023/12/22 02:00:11;;;;;;;7.70;1.00;;;7.70;99.90;;;;;;5097175;28;20511;-66
2023/12/22 02:02:42;;;;;;;8.47;1.00;;;7.80;99.90;;;;;;5089321;28;20570;-66
2023/12/22 02:05:12;;;;;;;7.90;0.93;;;7.90;99.90;;;;;;5101386;28;20441;-67
2023/12/22 02:07:42;;;;;;;7.40;0.73;;;8.00;99.90;;;;;;5109353;28;21093;-66
2023/12/22 02:10:11;;;;;;;6.70;0.93;;;7.90;99.90;;;;;;5106998;28;20816;-66
2023/12/22 02:12:38;;;;;;;7.93;0.90;;;7.90;99.90;;;;;;5110076;28;20446;-66
2023/12/22 02:15:07;;;;;;;6.87;0.77;;;7.90;99.90;;;;;;5109203;28;20441;-66
2023/12/22 02:17:44;;;;;;;8.00;0.87;;;7.90;99.90;;;;;;5109536;28;20555;-66
2023/12/22 02:20:13;;;;;;;5.87;0.80;;;7.90;99.90;;;;;;5106963;28;20469;-66
2023/12/22 02:22:43;;;;;;;6.53;0.73;;;7.80;99.90;;;;;;5107416;28;20584;-66
2023/12/22 02:25:11;;;;;;;8.37;1.03;;;7.80;99.90;;;;;;5108863;28;20501;-65
2023/12/22 02:27:43;;;;;;;7.97;0.80;;;7.80;99.90;;;;;;5100921;27;20453;-66
2023/12/22 02:30:16;;;;;;;6.90;0.80;;;7.80;99.90;;;;;;5105540;28;20445;-65
2023/12/22 02:32:48;;;;;;;7.27;1.00;;;7.80;99.90;;;;;;5089316;28;20466;-65
2023/12/22 02:35:20;;;;;;;12.57;1.13;;;7.80;99.90;;;;;;5101504;28;20456;-66
2023/12/22 02:37:51;;;;;;;8.00;0.70;;;7.80;99.90;;;;;;5104921;28;20462;-66
2023/12/22 02:40:21;;;;;;;6.03;0.60;;;7.80;99.90;;;;;;5105720;28;20526;-65
2023/12/22 02:42:49;;;;;;;7.33;1.00;;;7.80;99.90;;;;;;5108763;28;20573;-66
2023/12/22 02:45:19;;;;;;;7.67;0.90;;;7.80;99.90;;;;;;5108784;28;20456;-64
2023/12/22 02:47:48;;;;;;;10.67;2.53;;;7.80;99.90;;;;;;5108975;28;20470;-66
2023/12/22 02:50:17;;;;;;;8.30;1.00;;;7.80;99.90;;;;;;5109173;28;20542;-66
2023/12/22 02:52:45;;;;;;;8.00;0.90;;;7.90;99.90;;;;;;5108930;28;20537;-67
2023/12/22 02:55:15;;;;;;;6.37;0.70;;;7.90;99.90;;;;;;5108548;28;20502;-65
2023/12/22 02:57:43;;;;;;;6.40;1.00;;;7.90;99.90;;;;;;5108988;28;20476;-65
2023/12/22 03:00:12;;;;;;;6.73;0.93;;;7.90;99.90;;;;;;5102656;28;20526;-66
2023/12/22 03:02:40;;;;;;;6.97;0.93;;;7.90;99.90;;;;;;5108079;28;20579;-64
2023/12/22 03:05:08;;;;;;;5.90;0.80;;;7.90;99.90;;;;;;5107904;28;20521;-66
2023/12/22 03:07:36;;;;;;;10.60;1.27;;;7.90;99.90;;;;;;5098741;28;20489;-65
2023/12/22 03:10:04;;;;;;;9.13;2.10;;;7.90;99.90;;;;;;5107239;28;20839;-65
2023/12/22 03:12:34;;;;;;;8.67;1.23;;;7.90;99.90;;;;;;5103381;28;20461;-66
2023/12/22 03:15:02;;;;;;;6.80;0.90;;;7.90;99.90;;;;;;5108935;28;20544;-66
2023/12/22 03:17:30;;;;;;;7.17;0.80;;;8.00;99.90;;;;;;5110097;28;20548;-66
2023/12/22 03:19:59;;;;;;;8.63;0.90;;;8.10;99.90;;;;;;5098175;28;20454;-66
2023/12/22 03:22:27;;;;;;;8.53;1.13;;;8.20;99.90;;;;;;5088357;28;20864;-67
2023/12/22 03:24:55;;;;;;;8.30;0.77;;;8.20;99.90;;;;;;5087557;28;20462;-66
2023/12/22 03:27:23;;;;;;;7.60;1.30;;;8.30;99.90;;;;;;5088186;28;20470;-66
2023/12/22 03:29:52;;;;;;;6.63;1.03;;;8.40;99.90;;;;;;5091029;28;20472;-65
2023/12/22 03:32:20;;;;;;;8.20;1.17;;;8.40;99.90;;;;;;5099549;28;20437;-67
2023/12/22 03:34:48;;;;;;;8.30;0.73;;;8.40;99.90;;;;;;5107630;28;20464;-66
2023/12/22 03:37:16;;;;;;;8.03;1.10;;;8.40;99.90;;;;;;5108156;28;20487;-66
2023/12/22 03:39:44;;;;;;;8.67;0.90;;;8.30;99.90;;;;;;5108056;28;20441;-66
2023/12/22 03:42:12;;;;;;;7.20;0.80;;;8.40;99.90;;;;;;5108034;28;20574;-66
2023/12/22 03:44:40;;;;;;;7.60;0.93;;;8.30;99.90;;;;;;5107591;28;20497;-67
2023/12/22 03:47:09;;;;;;;6.07;0.90;;;8.30;99.90;;;;;;5107911;27;20473;-66
2023/12/22 03:49:37;;;;;;;8.53;1.00;;;8.30;99.90;;;;;;5101017;28;20450;-66
2023/12/22 03:52:05;;;;;;;6.57;0.90;;;8.30;99.90;;;;;;5087597;28;20442;-67
2023/12/22 03:54:33;;;;;;;8.73;1.13;;;8.30;99.90;;;;;;5087065;28;20545;-64
2023/12/22 03:57:01;;;;;;;7.90;1.10;;;8.20;99.90;;;;;;5087587;28;20494;-67
2023/12/22 03:59:29;;;;;;;10.77;1.00;;;8.20;99.90;;;;;;5087197;28;20910;-68
2023/12/22 04:02:00;;;;;;;8.37;1.20;;;8.30;99.90;;;;;;5082537;28;20964;-66
2023/12/22 04:04:30;;;;;;;7.90;1.27;;;8.10;99.90;;;;;;5087573;28;20448;-66
2023/12/22 04:06:58;;;;;;;6.30;0.83;;;7.80;99.90;;;;;;5087661;28;20484;-66
2023/12/22 04:09:26;;;;;;;7.90;1.43;;;7.40;99.90;;;;;;5087468;28;20446;-67
2023/12/22 04:11:54;;;;;;;8.50;1.10;;;6.90;99.90;;;;;;5086871;28;20451;-67
2023/12/22 04:14:22;;;;;;;6.70;1.10;;;6.60;99.90;;;;;;5090933;28;20455;-68
2023/12/22 04:16:52;;;;;;;9.00;1.37;;;6.40;99.90;;;;;;5086549;28;21077;-68
2023/12/22 04:19:21;;;;;;;13.23;1.27;;;6.40;99.90;;;;;;5087325;28;20446;-67
2023/12/22 04:21:50;;;;;;;9.40;2.13;;;6.30;99.90;;;;;;5087413;28;20501;-66
2023/12/22 04:24:20;;;;;;;8.60;1.27;;;6.30;99.90;;;;;;5086738;28;20560;-67
2023/12/22 04:26:50;;;;;;;10.67;1.50;;;6.40;99.90;;;;;;5086517;28;20459;-67
2023/12/22 04:29:18;;;;;;;7.40;1.60;;;6.40;99.90;;;;;;5086730;28;21117;-66
2023/12/22 04:31:46;;;;;;;8.97;1.50;;;6.50;99.90;;;;;;5086909;28;20476;-67
2023/12/22 04:34:15;;;;;;;11.53;1.47;;;6.50;99.90;;;;;;5098887;28;20445;-66
2023/12/22 04:36:43;;;;;;;6.57;1.00;;;6.60;99.90;;;;;;5107273;28;20483;-64
2023/12/22 04:39:13;;;;;;;13.53;2.00;;;6.70;99.90;;;;;;5106996;28;20470;-66
2023/12/22 04:41:41;;;;;;;13.73;1.27;;;6.80;99.90;;;;;;5107102;28;20468;-67
2023/12/22 04:44:09;;;;;;;9.90;0.90;;;6.80;99.90;;;;;;5106782;28;20541;-67
2023/12/22 04:46:37;;;;;;;12.80;1.57;;;6.90;99.90;;;;;;5106891;28;20937;-67
2023/12/22 04:49:05;;;;;;;7.87;1.60;;;7.00;99.90;;;;;;5106908;28;20459;-66
2023/12/22 04:51:33;;;;;;;7.50;1.40;;;7.10;99.90;;;;;;5106815;28;20962;-67
2023/12/22 04:54:01;;;;;;;7.40;0.97;;;7.10;99.90;;;;;;5106758;28;20441;-66
2023/12/22 04:56:30;;;;;;;8.20;1.00;;;7.20;99.90;;;;;;5106539;28;20479;-67
2023/12/22 04:58:58;;;;;;;11.97;1.50;;;7.20;99.90;;;;;;5107035;28;20450;-67
2023/12/22 05:01:26;;;;;;;7.73;1.13;;;7.30;99.90;;;;;;5106788;28;20854;-67
2023/12/22 05:03:54;;;;;;;6.97;0.70;;;7.30;99.90;;;;;;5101297;28;20503;-65
2023/12/22 05:06:22;;;;;;;10.67;1.77;;;7.30;99.90;;;;;;5106797;28;20471;-66
2023/12/22 05:08:50;;;;;;;9.57;0.97;;;7.40;99.90;;;;;;5106500;28;21032;-66
2023/12/22 05:11:18;;;;;;;10.20;1.10;;;7.40;99.90;;;;;;5106770;28;20465;-66
2023/12/22 05:13:47;;;;;;;7.73;1.13;;;7.50;99.90;;;;;;5106358;28;21042;-66
2023/12/22 05:16:15;;;;;;;11.67;1.40;;;7.50;99.90;;;;;;5106635;28;20471;-66
2023/12/22 05:18:43;;;;;;;8.30;1.00;;;7.60;99.90;;;;;;5106747;28;21082;-66
2023/12/22 05:21:14;;;;;;;9.10;1.17;;;7.60;99.90;;;;;;5106539;28;20468;-67
2023/12/22 05:23:42;;;;;;;8.43;1.60;;;7.60;99.90;;;;;;5109650;28;20580;-66
2023/12/22 05:26:10;;;;;;;8.63;1.20;;;7.60;99.90;;;;;;5110280;28;20516;-66
2023/12/22 05:28:38;;;;;;;11.47;2.20;;;7.60;99.90;;;;;;5110421;28;20451;-67
2023/12/22 05:31:07;;;;;;;7.97;1.10;;;7.70;99.90;;;;;;5097204;27;20472;-67
2023/12/22 05:33:35;;;;;;;14.83;1.80;;;7.70;99.90;;;;;;5102301;28;20981;-67
2023/12/22 05:36:04;;;;;;;13.97;2.00;;;7.70;99.90;;;;;;5105620;28;20524;-65
2023/12/22 05:38:32;;;;;;;12.90;2.70;;;7.70;99.90;;;;;;5098580;28;20525;-67
2023/12/22 05:41:03;;;;;;;11.57;1.63;;;7.70;99.90;;;;;;5089674;28;20502;-66
2023/12/22 05:43:31;;;;;;;12.10;1.77;;;7.60;99.90;;;;;;5089795;28;20485;-66
2023/12/22 05:45:59;;;;;;;10.97;1.43;;;7.50;99.90;;;;;;5089729;28;20450;-67
2023/12/22 05:48:31;;;;;;;12.33;1.70;;;7.40;99.90;;;;;;5090113;28;20456;-66
2023/12/22 05:50:59;;;;;;;10.93;1.70;;;7.40;99.90;;;;;;5089328;28;20476;-66
2023/12/22 05:53:27;;;;;;;10.53;1.63;;;7.50;99.90;;;;;;5089721;28;20527;-67
2023/12/22 05:55:55;;;;;;;11.17;1.70;;;7.50;99.90;;;;;;5090267;28;21000;-67
2023/12/22 05:58:23;;;;;;;10.33;2.70;;;7.60;99.90;;;;;;5089352;28;20473;-67
2023/12/22 06:00:51;;;;;;;12.73;1.60;;;7.70;99.90;;;;;;5089725;28;20450;-67
2023/12/22 06:03:19;;;;;;;10.03;2.27;;;7.80;99.90;;;;;;5089054;28;20492;-67
2023/12/22 06:05:49;;;;;;;7.93;1.40;;;7.80;99.90;;;;;;5082706;28;21329;-67
2023/12/22 06:08:17;;;;;;;10.17;1.40;;;7.90;99.90;;;;;;5101307;28;20506;-66
2023/12/22 06:10:45;;;;;;;8.17;1.20;;;8.00;99.90;;;;;;5109443;28;20445;-66
2023/12/22 06:13:13;;;;;;;12.23;1.83;;;8.00;99.90;;;;;;5109771;28;20613;-67
2023/12/22 06:15:42;;;;;;;8.87;2.03;;;8.10;99.90;;;;;;5109192;28;21039;-67
2023/12/22 06:18:09;;;;;;;13.27;2.40;;;8.10;99.90;;;;;;5109699;28;20461;-67
2023/12/22 06:20:37;;;;;;;10.10;1.43;;;8.10;99.90;;;;;;5103999;27;20498;-67
2023/12/22 06:23:07;;;;;;;11.43;1.60;;;8.10;99.90;;;;;;5105334;28;20442;-66
2023/12/22 06:25:35;;;;;;;9.03;1.50;;;8.10;99.90;;;;;;5104624;28;20817;-67
2023/12/22 06:28:03;;;;;;;12.17;2.30;;;8.00;99.90;;;;;;5109435;27;20839;-67
2023/12/22 06:30:31;;;;;;;9.80;1.83;;;7.90;99.90;;;;;;5109396;28;20500;-65
2023/12/22 06:32:59;;;;;;;9.03;1.30;;;7.90;99.90;;;;;;5109571;28;21089;-66
2023/12/22 06:35:27;;;;;;;9.50;1.87;;;7.90;99.90;;;;;;5108995;28;20532;-66
2023/12/22 06:37:56;;;;;;;10.33;1.63;;;8.00;99.90;;;;;;5108832;28;20472;-66
2023/12/22 06:40:25;;;;;;;10.87;2.00;;;8.10;99.90;;;;;;5109066;28;20469;-66
2023/12/22 06:42:53;;;;;;;9.83;1.20;;;8.10;99.90;;;;;;5109249;28;20455;-66
2023/12/22 06:45:21;;;;;;;7.70;1.33;;;8.10;99.90;;;;;;5108614;28;20517;-67
2023/12/22 06:47:49;;;;;;;8.03;1.40;;;8.20;99.90;;;;;;5109152;28;20469;-67
2023/12/22 06:50:18;;;;;;;12.93;1.53;;;8.20;99.90;;;;;;5109027;28;20473;-66
2023/12/22 06:52:46;;;;;;;10.60;1.43;;;8.20;99.90;;;;;;5108721;28;20536;-67
2023/12/22 06:55:14;;;;;;;12.43;2.13;;;8.20;99.90;;;;;;5108428;27;20453;-67
2023/12/22 06:57:44;;;;;;;7.73;1.47;;;8.30;99.90;;;;;;5108918;28;20530;-66
2023/12/22 07:00:14;;;;;;;11.40;2.87;;;8.30;99.90;;;;;;5108892;28;20473;-67
2023/12/22 07:02:42;;;;;;;11.07;1.30;;;8.30;99.90;;;;;;5108736;28;20507;-67
2023/12/22 07:05:36;;;;;;;13.43;2.00;;;8.30;99.90;;;;;;5108101;28;20550;-67
2023/12/22 07:08:06;;;;;;;9.47;1.37;;;8.30;99.90;;;;;;5103635;28;20472;-68
2023/12/22 07:10:34;;;;;;;12.20;2.13;;;8.30;99.90;;;;;;5108529;28;20556;-67
2023/12/22 07:13:04;;;;;;;10.77;1.60;;;8.30;99.90;;;;;;5108291;27;20823;-68
2023/12/22 07:15:33;;;;;;;10.90;1.70;;;8.20;99.90;;;;;;5107540;28;21043;-68
2023/12/22 07:18:01;;;;;;;11.07;1.70;;;8.20;99.90;;;;;;5109219;28;20540;-67
2023/12/22 07:20:29;;;;;;;9.60;1.80;;;8.20;99.90;;;;;;5108987;28;20508;-66
2023/12/22 07:22:57;;;;;;;12.33;1.97;;;8.30;99.90;;;;;;5108347;28;20472;-67
2023/12/22 07:25:26;;;;;;;12.33;1.70;;;8.20;99.90;;;;;;5108186;28;20485;-67
2023/12/22 07:27:54;;;;;;;8.47;2.13;;;8.20;99.90;;;;;;5108899;28;20877;-68
2023/12/22 07:30:24;;;;;;;9.27;1.50;;;8.20;99.90;;;;;;5108160;28;20530;-67
2023/12/22 07:32:52;;;;;;;13.40;2.13;;;8.20;99.90;;;;;;5108193;28;20439;-68
2023/12/22 07:35:21;;;;;;;10.00;1.40;;;8.20;99.90;;;;;;5107896;28;21164;-66
2023/12/22 07:37:49;;;;;;;9.37;1.60;;;8.20;99.90;;;;;;5108032;28;20461;-68
2023/12/22 07:40:17;;;;;;;11.10;1.80;;;8.10;99.90;;;;;;5087652;28;20450;-68
2023/12/22 07:42:45;;;;;;;8.73;1.93;;;8.20;99.90;;;;;;5087565;28;20446;-67
2023/12/22 07:45:14;;;;;;;8.77;1.60;;;8.20;99.90;;;;;;5085971;28;20543;-67
2023/12/22 07:47:43;;;;;;;8.50;1.47;;;8.20;99.90;;;;;;5087302;28;20470;-68
2023/12/22 07:50:11;;;;;;;13.27;1.80;;;8.20;99.90;;;;;;5087620;28;20525;-68
2023/12/22 07:52:39;;;;;;;10.40;1.23;;;8.20;99.90;;;;;;5087368;28;20450;-69
2023/12/22 07:55:10;;;;;;;9.93;1.57;;;8.30;99.90;;;;;;5086878;28;20438;-67
2023/12/22 07:57:39;;;;;;;8.60;1.40;;;8.30;99.90;;;;;;5087406;28;20473;-68
2023/12/22 08:00:09;;;;;;;12.20;1.53;;;8.30;99.90;;;;;;5089254;28;20566;-67
2023/12/22 08:02:37;;;;;;;10.17;3.10;;;8.20;99.90;;;;;;5107257;28;20465;-71
2023/12/22 08:05:06;;;;;;;7.57;1.23;;;8.20;99.90;;;;;;5107415;28;20480;-69
2023/12/22 08:07:34;;;;;;;10.13;1.17;;;8.00;99.90;;;;;;5107685;28;20479;-68
2023/12/22 08:10:02;;;;;;;8.63;1.30;;;7.70;99.90;;;;;;5107894;28;20457;-67
2023/12/22 08:12:32;;;;;;;10.57;1.33;;;7.40;99.90;;;;;;5107172;28;20456;-67
2023/12/22 08:15:07;;;;;;;7.80;1.20;;;7.20;99.90;;;;;;5106987;28;20474;-68
2023/12/22 08:17:37;;;;;;;9.47;1.80;;;7.20;99.90;;;;;;5106873;28;20487;-68
2023/12/22 08:20:10;;;;;;;12.90;2.80;;;7.10;99.90;;;;;;5106870;28;20484;-67
2023/12/22 08:22:47;;;;;;;10.03;2.60;;;7.00;99.90;;;;;;5107071;28;20539;-68
2023/12/22 08:25:20;;;;;;;14.77;2.00;;;6.90;99.90;;;;;;5106599;28;20506;-67
2023/12/22 08:27:48;;;;;;;7.87;1.60;;;6.90;99.90;;;;;;5107359;28;20468;-68
2023/12/22 08:30:16;;;;;;;9.20;1.50;;;6.90;99.90;;;;;;5103509;28;20464;-68
2023/12/22 08:32:44;;;;;;;16.03;2.40;;;6.90;99.90;;;;;;5087048;28;20894;-69
2023/12/22 08:35:14;;;;;;;11.40;2.00;;;6.90;99.90;;;;;;5087474;28;20468;-67
2023/12/22 08:37:42;;;;;;;10.00;1.40;;;6.80;99.90;;;;;;5105569;28;20471;-68
2023/12/22 08:40:12;;;;;;;8.37;1.70;;;6.80;99.90;;;;;;5101811;28;21010;-69
2023/12/22 08:42:40;;;;;;;12.63;2.43;;;6.80;99.90;;;;;;5105244;28;20443;-69
2023/12/22 08:45:09;;;;;;;11.23;2.20;;;6.80;99.90;;;;;;5104090;28;20471;-69
2023/12/22 08:47:37;;;;;;;12.13;3.63;;;6.80;99.90;;;;;;5101077;28;20469;-67
2023/12/22 08:50:07;;;;;;;25.73;3.20;;;6.80;99.90;;;;;;5105891;28;20447;-68
2023/12/22 08:52:37;;;;;;;13.53;3.63;;;6.90;99.90;;;;;;5100838;28;20489;-68
2023/12/22 08:55:06;;;;;;;14.93;2.10;;;6.90;99.90;;;;;;5102387;28;20467;-68
2023/12/22 08:57:34;;;;;;;17.17;2.53;;;6.90;99.90;;;;;;5104905;28;20988;-70
2023/12/22 09:00:03;;;;;;;15.23;2.80;;;6.90;99.90;;;;;;5108572;28;20448;-70
2023/12/22 09:02:31;;;;;;;16.63;3.53;;;7.00;99.90;;;;;;5111203;28;20487;-68
2023/12/22 09:04:59;;;;;;;9.03;1.90;;;7.10;99.90;;;;;;5110638;28;20510;-69
2023/12/22 09:07:27;;;;;;;14.27;2.20;;;7.10;99.90;;;;;;5111080;28;20471;-69
2023/12/22 09:09:57;;;;;;;16.80;3.00;;;7.10;99.90;;;;;;5110720;28;20449;-68
2023/12/22 09:12:25;;;;;;;14.70;3.10;;;7.20;99.90;;;;;;5110577;28;20905;-68
2023/12/22 09:14:53;;;;;;;12.23;2.53;;;7.30;99.90;;;;;;5104925;28;20449;-69
2023/12/22 09:17:21;;;;;;;11.87;2.13;;;7.30;99.90;;;;;;5103423;28;20889;-68
2023/12/22 09:19:50;;;;;;;14.17;1.87;;;7.40;99.90;;;;;;5107629;28;21036;-70
2023/12/22 09:22:18;;;;;;;17.67;3.07;;;7.60;99.90;;;;;;5110044;28;21020;-69
2023/12/22 09:24:46;;;;;;;11.80;2.30;;;7.60;99.90;;;;;;5109253;28;20529;-70
2023/12/22 09:27:16;;;;;;;15.53;1.83;;;7.70;99.90;;;;;;5109416;28;20459;-68
2023/12/22 09:29:44;;;;;;;7.83;1.30;;;7.70;99.90;;;;;;5107917;28;20523;-67
2023/12/22 09:32:12;;;;;;;16.03;2.30;;;7.80;99.90;;;;;;5097582;28;20510;-67
2023/12/22 09:34:40;;;;;;;13.00;2.30;;;7.80;99.90;;;;;;5088883;28;20456;-68
2023/12/22 09:37:08;;;;;;;15.10;2.90;;;7.80;99.90;;;;;;5092447;28;21129;-67
2023/12/22 09:39:37;;;;;;;11.87;2.33;;;7.80;99.90;;;;;;5091720;28;20481;-67
2023/12/22 09:42:06;;;;;;;13.20;2.60;;;7.80;99.90;;;;;;5105425;28;20452;-67
2023/12/22 09:44:39;;;;;;;9.90;2.30;;;7.90;99.90;;;;;;5105258;28;20437;-68
2023/12/22 09:47:08;;;;;;;12.40;3.40;;;8.00;99.90;;;;;;5104717;27;20481;-67
2023/12/22 09:49:36;;;;;;;14.53;2.27;;;8.00;99.90;;;;;;5101047;28;20545;-67
2023/12/22 09:52:07;;;;;;;14.30;2.17;;;8.10;99.90;;;;;;5093022;28;20515;-68
2023/12/22 09:54:35;;;;;;;14.40;3.70;;;8.10;99.90;;;;;;5104938;28;20528;-70
2023/12/22 09:57:04;;;;;;;13.03;2.63;;;8.20;99.90;;;;;;5105225;28;20545;-67
2023/12/22 09:59:52;;;;;;;12.93;2.23;;;8.20;99.90;;;;;;5103423;28;20433;-68
2023/12/22 10:02:21;;;;;;;12.27;2.10;;;8.30;99.90;;;;;;5102232;28;20485;-69
2023/12/22 10:04:49;;;;;;;12.80;2.07;;;8.30;99.90;;;;;;5104507;28;20518;-67
2023/12/22 10:07:18;;;;;;;16.03;2.80;;;8.40;99.90;;;;;;5105223;28;20538;-66
2023/12/22 10:09:48;;;;;;;14.60;2.50;;;8.40;99.90;;;;;;5103063;27;20451;-67
2023/12/22 10:12:17;;;;;;;13.23;2.33;;;8.40;99.90;;;;;;5108271;27;20437;-68
2023/12/22 10:14:46;;;;;;;14.53;2.70;;;8.40;99.90;;;;;;5104082;28;20951;-69
2023/12/22 10:17:16;;;;;;;11.20;2.50;;;8.40;99.90;;;;;;5103139;27;20540;-69
2023/12/22 10:19:44;;;;;;;12.70;2.70;;;8.50;99.90;;;;;;5104849;28;20883;-70
2023/12/22 10:22:12;;;;;;;20.67;2.37;;;8.60;99.90;;;;;;5102867;28;20440;-69
2023/12/22 10:24:47;;;;;;;15.63;2.57;;;8.60;99.90;;;;;;5104182;28;20461;-69
2023/12/22 10:27:16;;;;;;;11.30;2.33;;;8.60;99.90;;;;;;5104355;28;20488;-69
2023/12/22 10:29:44;;;;;;;11.27;1.83;;;8.70;99.90;;;;;;5097138;28;20492;-67
2023/12/22 10:32:12;;;;;;;15.50;2.60;;;8.70;99.90;;;;;;5097804;27;20442;-69
2023/12/22 10:34:42;;;;;;;16.17;2.63;;;8.80;99.90;;;;;;5106840;28;20483;-69
2023/12/22 10:37:12;;;;;;;17.20;3.03;;;8.80;99.90;;;;;;5103203;28;20460;-68
2023/12/22 10:39:41;;;;;;;12.03;2.27;;;8.80;99.90;;;;;;5102504;27;20454;-68
2023/12/22 10:42:10;;;;;;;8.63;1.80;;;8.80;99.90;;;;;;5098677;28;20484;-70
2023/12/22 10:44:43;;;;;;;13.87;2.30;;;8.80;99.90;;;;;;5099318;27;20461;-69
2023/12/22 10:47:11;;;;;;;12.83;2.50;;;8.90;99.90;;;;;;5101925;27;20590;-67
2023/12/22 10:49:41;;;;;;;16.30;2.53;;;8.80;99.90;;;;;;5106046;27;20438;-69
2023/12/22 10:52:16;;;;;;;8.70;1.80;;;8.90;99.90;;;;;;5105215;28;20525;-69
2023/12/22 10:54:43;;;;;;;11.20;2.27;;;8.90;99.90;;;;;;5102696;28;20494;-68
2023/12/22 10:57:12;;;;;;;13.23;2.80;;;8.90;99.90;;;;;;5101960;27;20486;-69
2023/12/22 10:59:46;;;;;;;12.70;2.30;;;9.00;99.90;;;;;;5101829;27;20437;-68
2023/12/22 11:02:29;;;;;;;13.03;1.40;;;9.00;99.90;;;;;;5106461;27;20447;-68
2023/12/22 11:05:04;;;;;;;12.30;1.80;;;9.00;99.90;;;;;;5107517;27;20460;-69
2023/12/22 11:07:35;;;;;;;7.10;1.37;;;9.00;99.90;;;;;;5108710;27;20480;-69
2023/12/22 11:10:06;;;;;;;8.50;1.70;;;9.00;99.90;;;;;;5105344;28;20565;-69
2023/12/22 11:12:36;;;;;;;11.50;1.90;;;9.00;99.90;;;;;;5107392;27;20521;-69
2023/12/22 11:15:06;;;;;;;9.50;1.20;;;8.90;99.90;;;;;;5107409;28;20449;-69
2023/12/22 11:17:39;;;;;;;8.83;1.00;;;8.90;99.90;;;;;;5108360;28;20568;-68
2023/12/22 11:20:10;;;;;;;7.30;0.97;;;8.90;99.90;;;;;;5107325;28;20457;-68
2023/12/22 11:22:40;;;;;;;10.20;1.40;;;8.90;99.90;;;;;;5107400;28;20450;-69
2023/12/22 11:25:09;;;;;;;6.77;0.80;;;8.90;99.90;;;;;;5106868;28;20453;-69
2023/12/22 11:27:45;;;;;;;9.17;0.97;;;8.80;99.90;;;;;;5102441;28;21106;-69
2023/12/22 11:30:14;;;;;;;15.90;1.60;;;8.60;99.90;;;;;;5104236;28;20437;-69
2023/12/22 11:32:45;;;;;;;6.80;0.80;;;8.50;99.90;;;;;;5102240;28;20506;-67
2023/12/22 11:35:15;;;;;;;6.73;1.30;;;8.40;99.90;;;;;;5104248;28;20444;-68
2023/12/22 11:37:44;;;;;;;6.63;0.80;;;8.40;99.90;;;;;;5104991;27;20540;-70
2023/12/22 11:40:12;;;;;;;9.50;1.23;;;8.40;99.90;;;;;;5105831;28;20437;-69
2023/12/22 11:42:44;;;;;;;7.27;0.90;;;8.40;99.90;;;;;;5106112;28;20863;-71
2023/12/22 11:45:16;;;;;;;7.47;1.10;;;8.40;99.90;;;;;;5102546;28;20515;-70
2023/12/22 11:47:45;;;;;;;8.30;1.07;;;8.40;99.90;;;;;;5104293;28;20476;-69
2023/12/22 11:50:29;;;;;;;7.63;1.23;;;8.40;99.90;;;;;;5104039;28;21003;-71
2023/12/22 11:52:58;;;;;;;6.60;0.80;;;8.40;99.90;;;;;;5102978;28;21105;-70
2023/12/22 11:55:57;;;;;;;7.50;0.87;;;8.40;99.90;;;;;;5103335;28;20526;-70
2023/12/22 11:58:35;;;;;;;8.77;1.27;;;8.40;99.90;;;;;;5105156;28;20542;-72
2023/12/22 12:01:05;;;;;;;7.27;1.00;;;8.30;99.90;;;;;;5103531;28;20494;-69
2023/12/22 12:03:36;;;;;;;8.80;1.10;;;8.20;99.90;;;;;;5100788;28;20473;-68
2023/12/22 12:06:31;;;;;;;7.50;1.40;;;8.10;99.90;;;;;;5104751;28;20430;-70
2023/12/22 12:09:01;;;;;;;6.70;0.80;;;8.00;99.90;;;;;;5090773;28;20448;-70
2023/12/22 12:12:07;;;;;;;6.00;0.63;;;8.00;99.90;;;;;;5096590;28;20469;-70
2023/12/22 12:14:42;;;;;;;6.53;0.50;;;8.00;99.90;;;;;;5101186;28;20485;-70
2023/12/22 12:17:10;;;;;;;9.13;0.90;;;8.00;99.90;;;;;;5103067;27;21160;-70
2023/12/22 12:19:41;;;;;;;7.10;0.73;;;8.10;99.90;;;;;;5102091;28;20511;-70
2023/12/22 12:22:13;;;;;;;9.17;1.33;;;8.10;99.90;;;;;;5098754;28;20445;-72
2023/12/22 12:24:42;;;;;;;7.40;0.70;;;8.20;99.90;;;;;;5103910;28;20441;-69
2023/12/22 12:27:10;;;;;;;8.00;0.80;;;8.20;99.90;;;;;;5100803;28;20489;-68
2023/12/22 12:29:39;;;;;;;7.60;1.27;;;8.20;99.90;;;;;;5098754;28;20550;-69
2023/12/22 12:32:07;;;;;;;7.97;1.03;;;8.30;99.90;;;;;;5096113;27;20453;-70
2023/12/22 12:34:36;;;;;;;8.00;0.70;;;8.30;99.90;;;;;;5098188;28;20441;-68
2023/12/22 12:37:05;;;;;;;6.97;1.10;;;8.30;99.90;;;;;;5097221;28;20761;-70
2023/12/22 12:39:40;;;;;;;6.57;0.70;;;8.30;99.90;;;;;;5095660;27;20532;-69
2023/12/22 12:42:09;;;;;;;7.23;0.70;;;8.40;99.90;;;;;;5104464;28;20433;-69
2023/12/22 12:44:45;;;;;;;8.90;0.90;;;8.40;99.90;;;;;;5100471;28;20445;-70
2023/12/22 12:47:13;;;;;;;7.00;0.83;;;8.40;99.90;;;;;;5095953;28;20977;-70
2023/12/22 12:49:44;;;;;;;6.77;0.70;;;8.50;99.90;;;;;;5091890;28;20441;-67
2023/12/22 12:52:14;;;;;;;7.40;0.80;;;8.50;99.90;;;;;;5103738;28;20449;-70
2023/12/22 12:54:44;;;;;;;6.20;0.60;;;8.50;99.90;;;;;;5106143;28;20448;-68
2023/12/22 12:57:16;;;;;;;6.57;0.67;;;8.50;99.90;;;;;;5106482;28;20461;-67
2023/12/22 12:59:47;;;;;;;7.10;0.83;;;8.60;99.90;;;;;;5106711;28;20537;-68
2023/12/22 13:02:15;;;;;;;6.80;0.70;;;8.60;99.90;;;;;;5108787;28;20449;-70
2023/12/22 13:04:45;;;;;;;6.87;0.80;;;8.60;99.90;;;;;;5104693;27;20433;-69